sensor_id;sensor_type;location;lat;lon;timestamp;temperature;humidity
14995;DHT22;7593;49.006;8.372;2024-02-21T00:00:20;7.70;99.90
14995;DHT22;7593;49.006;8.372;2024-02-21T00:02:47;7.70;99.90
14995;DHT22;7593;49.006;8.372;2024-02-21T00:05:15;7.70;99.90
14995;DHT22;7593;49.006;8.372;2024-02-21T00:07:42;7.70;99.90
14995;DHT22;7593;49.006;8.372;2024-02-21T00:10:09;7.70;99.90
14995;DHT22;7593;49.006;8.372;2024-02-21T00:12:35;7.80;99.90
14995;DHT22;7593;49.006;8.372;2024-02-21T00:15:03;7.70;99.90
14995;DHT22;7593;49.006;8.372;2024-02-21T00:17:29;7.80;99.90
14995;DHT22;7593;49.006;8.372;2024-02-21T00:19:56;7.80;99.90
14995;DHT22;7593;49.006;8.372;2024-02-21T00:22:24;7.70;99.90
14995;DHT22;7593;49.006;8.372;2024-02-21T00:24:53;7.80;99.90
14995;DHT22;7593;49.006;8.372;2024-02-21T00:27:20;7.80;99.90
14995;DHT22;7593;49.006;8.372;2024-02-21T00:29:47;7.80;99.90
14995;DHT22;7593;49.006;8.372;2024-02-21T00:32:13;7.80;99.90
14995;DHT22;7593;49.006;8.372;2024-02-21T00:34:40;7.80;99.90
14995;DHT22;7593;49.006;8.372;2024-02-21T00:37:07;7.80;99.90
14995;DHT22;7593;49.006;8.372;2024-02-21T00:39:35;7.80;99.90
14995;DHT22;7593;49.006;8.372;2024-02-21T00:42:02;7.80;99.90
14995;DHT22;7593;49.006;8.372;2024-02-21T00:44:29;7.80;99.90
14995;DHT22;7593;49.006;8.372;2024-02-21T00:46:56;7.80;99.90
14995;DHT22;7593;49.006;8.372;2024-02-21T00:49:22;7.80;99.90
14995;DHT22;7593;49.006;8.372;2024-02-21T00:51:49;7.80;99.90
14995;DHT22;7593;49.006;8.372;2024-02-21T00:54:16;7.80;99.90
14995;DHT22;7593;49.006;8.372;2024-02-21T00:56:44;7.80;99.90
14995;DHT22;7593;49.006;8.372;2024-02-21T00:59:11;7.80;99.90
14995;DHT22;7593;49.006;8.372;2024-02-21T01:01:37;7.70;99.90
14995;DHT22;7593;49.006;8.372;2024-02-21T01:04:07;7.70;99.90
14995;DHT22;7593;49.006;8.372;2024-02-21T01:06:34;7.60;99.90
14995;DHT22;7593;49.006;8.372;2024-02-21T01:09:00;7.40;99.90
14995;DHT22;7593;49.006;8.372;2024-02-21T01:11:27;7.30;99.90
14995;DHT22;7593;49.006;8.372;2024-02-21T01:13:55;7.10;99.90
14995;DHT22;7593;49.006;8.372;2024-02-21T01:16:22;6.90;99.90
14995;DHT22;7593;49.006;8.372;2024-02-21T01:18:48;6.80;99.90
14995;DHT22;7593;49.006;8.372;2024-02-21T01:21:15;6.70;99.90
14995;DHT22;7593;49.006;8.372;2024-02-21T01:23:42;6.60;99.90
14995;DHT22;7593;49.006;8.372;2024-02-21T01:26:08;6.50;99.90
14995;DHT22;7593;49.006;8.372;2024-02-21T01:28:40;6.50;99.90
14995;DHT22;7593;49.006;8.372;2024-02-21T01:31:08;6.50;99.90
14995;DHT22;7593;49.006;8.372;2024-02-21T01:33:35;6.40;99.90
14995;DHT22;7593;49.006;8.372;2024-02-21T01:36:04;6.40;99.90
14995;DHT22;7593;49.006;8.372;2024-02-21T01:38:32;6.40;99.90
14995;DHT22;7593;49.006;8.372;2024-02-21T01:40:59;6.40;99.90
14995;DHT22;7593;49.006;8.372;2024-02-21T01:43:26;6.40;99.90
14995;DHT22;7593;49.006;8.372;2024-02-21T01:45:55;6.40;99.90
14995;DHT22;7593;49.006;8.372;2024-02-21T01:48:24;6.40;99.90
14995;DHT22;7593;49.006;8.372;2024-02-21T01:50:52;6.40;99.90
14995;DHT22;7593;49.006;8.372;2024-02-21T01:53:22;6.40;99.90
14995;DHT22;7593;49.006;8.372;2024-02-21T01:55:49;6.40;99.90
14995;DHT22;7593;49.006;8.372;2024-02-21T01:58:17;6.40;99.90
14995;DHT22;7593;49.006;8.372;2024-02-21T02:00:46;6.40;99.90
14995;DHT22;7593;49.006;8.372;2024-02-21T02:03:14;6.40;99.90
14995;DHT22;7593;49.006;8.372;2024-02-21T02:05:44;6.40;99.90
14995;DHT22;7593;49.006;8.372;2024-02-21T02:08:11;6.40;99.90
14995;DHT22;7593;49.006;8.372;2024-02-21T02:10:39;6.40;99.90
14995;DHT22;7593;49.006;8.372;2024-02-21T02:13:06;6.40;99.90
14995;DHT22;7593;49.006;8.372;2024-02-21T02:15:40;6.30;99.90
14995;DHT22;7593;49.006;8.372;2024-02-21T02:18:07;6.30;99.90
14995;DHT22;7593;49.006;8.372;2024-02-21T02:20:33;6.40;99.90
14995;DHT22;7593;49.006;8.372;2024-02-21T02:23:07;6.40;99.90
14995;DHT22;7593;49.006;8.372;2024-02-21T02:25:36;6.40;99.90
14995;DHT22;7593;49.006;8.372;2024-02-21T02:28:03;6.40;99.90
14995;DHT22;7593;49.006;8.372;2024-02-21T02:30:32;6.40;99.90
14995;DHT22;7593;49.006;8.372;2024-02-21T02:33:03;6.40;99.90
14995;DHT22;7593;49.006;8.372;2024-02-21T02:35:29;6.40;99.90
14995;DHT22;7593;49.006;8.372;2024-02-21T02:37:56;6.40;99.90
14995;DHT22;7593;49.006;8.372;2024-02-21T02:40:23;6.40;99.90
14995;DHT22;7593;49.006;8.372;2024-02-21T02:42:51;6.40;99.90
14995;DHT22;7593;49.006;8.372;2024-02-21T02:45:21;6.40;99.90
14995;DHT22;7593;49.006;8.372;2024-02-21T02:47:49;6.40;99.90
14995;DHT22;7593;49.006;8.372;2024-02-21T02:50:16;6.40;99.90
14995;DHT22;7593;49.006;8.372;2024-02-21T02:52:42;6.40;99.90
14995;DHT22;7593;49.006;8.372;2024-02-21T02:55:09;6.40;99.90
14995;DHT22;7593;49.006;8.372;2024-02-21T02:57:36;6.40;99.90
14995;DHT22;7593;49.006;8.372;2024-02-21T03:00:05;6.40;99.90
14995;DHT22;7593;49.006;8.372;2024-02-21T03:02:33;6.30;99.90
14995;DHT22;7593;49.006;8.372;2024-02-21T03:05:00;6.30;99.90
14995;DHT22;7593;49.006;8.372;2024-02-21T03:07:26;6.40;99.90
14995;DHT22;7593;49.006;8.372;2024-02-21T03:09:53;6.40;99.90
14995;DHT22;7593;49.006;8.372;2024-02-21T03:12:20;6.40;99.90
14995;DHT22;7593;49.006;8.372;2024-02-21T03:14:55;6.40;99.90
14995;DHT22;7593;49.006;8.372;2024-02-21T03:17:25;6.40;99.90
14995;DHT22;7593;49.006;8.372;2024-02-21T03:19:52;6.40;99.90
14995;DHT22;7593;49.006;8.372;2024-02-21T03:22:20;6.40;99.90
14995;DHT22;7593;49.006;8.372;2024-02-21T03:24:47;6.40;99.90
14995;DHT22;7593;49.006;8.372;2024-02-21T03:27:14;6.40;99.90
14995;DHT22;7593;49.006;8.372;2024-02-21T03:29:41;6.40;99.90
14995;DHT22;7593;49.006;8.372;2024-02-21T03:32:07;6.50;99.90
14995;DHT22;7593;49.006;8.372;2024-02-21T03:34:36;6.50;99.90
14995;DHT22;7593;49.006;8.372;2024-02-21T03:37:03;6.60;99.90
14995;DHT22;7593;49.006;8.372;2024-02-21T03:39:31;6.60;99.90
14995;DHT22;7593;49.006;8.372;2024-02-21T03:41:58;6.60;99.90
14995;DHT22;7593;49.006;8.372;2024-02-21T03:44:26;6.60;99.90
14995;DHT22;7593;49.006;8.372;2024-02-21T03:46:53;6.70;99.90
14995;DHT22;7593;49.006;8.372;2024-02-21T03:49:20;6.70;99.90
14995;DHT22;7593;49.006;8.372;2024-02-21T03:51:48;6.70;99.90
14995;DHT22;7593;49.006;8.372;2024-02-21T03:54:15;6.70;99.90
14995;DHT22;7593;49.006;8.372;2024-02-21T03:56:41;6.70;99.90
14995;DHT22;7593;49.006;8.372;2024-02-21T03:59:08;6.70;99.90
14995;DHT22;7593;49.006;8.372;2024-02-21T04:01:35;6.70;99.90
14995;DHT22;7593;49.006;8.372;2024-02-21T04:04:02;6.70;99.90
14995;DHT22;7593;49.006;8.372;2024-02-21T04:06:29;6.70;99.90
14995;DHT22;7593;49.006;8.372;2024-02-21T04:08:57;6.70;99.90
14995;DHT22;7593;49.006;8.372;2024-02-21T04:11:24;6.60;99.90
14995;DHT22;7593;49.006;8.372;2024-02-21T04:13:51;6.60;99.90
14995;DHT22;7593;49.006;8.372;2024-02-21T04:16:17;6.60;99.90
14995;DHT22;7593;49.006;8.372;2024-02-21T04:18:44;6.60;99.90
14995;DHT22;7593;49.006;8.372;2024-02-21T04:21:14;6.60;99.90
14995;DHT22;7593;49.006;8.372;2024-02-21T04:23:41;6.60;99.90
14995;DHT22;7593;49.006;8.372;2024-02-21T04:26:09;6.60;99.90
14995;DHT22;7593;49.006;8.372;2024-02-21T04:28:36;6.50;99.90
14995;DHT22;7593;49.006;8.372;2024-02-21T04:31:03;6.50;99.90
14995;DHT22;7593;49.006;8.372;2024-02-21T04:33:30;6.50;99.90
14995;DHT22;7593;49.006;8.372;2024-02-21T04:35:57;6.50;99.90
14995;DHT22;7593;49.006;8.372;2024-02-21T04:38:25;6.50;99.90
14995;DHT22;7593;49.006;8.372;2024-02-21T04:40:51;6.40;99.90
14995;DHT22;7593;49.006;8.372;2024-02-21T04:43:19;6.40;99.90
14995;DHT22;7593;49.006;8.372;2024-02-21T04:45:46;6.40;99.90
14995;DHT22;7593;49.006;8.372;2024-02-21T04:48:13;6.40;99.90
14995;DHT22;7593;49.006;8.372;2024-02-21T04:50:39;6.30;99.90
14995;DHT22;7593;49.006;8.372;2024-02-21T04:53:06;6.30;99.90
14995;DHT22;7593;49.006;8.372;2024-02-21T04:55:33;6.30;99.90
14995;DHT22;7593;49.006;8.372;2024-02-21T04:58:00;6.30;99.90
14995;DHT22;7593;49.006;8.372;2024-02-21T05:00:29;6.30;99.90
14995;DHT22;7593;49.006;8.372;2024-02-21T05:02:55;6.30;99.90
14995;DHT22;7593;49.006;8.372;2024-02-21T05:05:22;6.20;99.90
14995;DHT22;7593;49.006;8.372;2024-02-21T05:07:49;6.20;99.90
14995;DHT22;7593;49.006;8.372;2024-02-21T05:10:16;6.20;99.90
14995;DHT22;7593;49.006;8.372;2024-02-21T05:12:43;6.10;99.90
14995;DHT22;7593;49.006;8.372;2024-02-21T05:15:09;6.10;99.90
14995;DHT22;7593;49.006;8.372;2024-02-21T05:17:38;6.10;99.90
14995;DHT22;7593;49.006;8.372;2024-02-21T05:20:05;6.00;99.90
14995;DHT22;7593;49.006;8.372;2024-02-21T05:22:32;6.00;99.90
14995;DHT22;7593;49.006;8.372;2024-02-21T05:24:59;6.00;99.90
14995;DHT22;7593;49.006;8.372;2024-02-21T05:27:26;6.00;99.90
14995;DHT22;7593;49.006;8.372;2024-02-21T05:29:53;6.00;99.90
14995;DHT22;7593;49.006;8.372;2024-02-21T05:32:20;5.90;99.90
14995;DHT22;7593;49.006;8.372;2024-02-21T05:34:49;5.90;99.90
14995;DHT22;7593;49.006;8.372;2024-02-21T05:37:20;5.90;99.90
14995;DHT22;7593;49.006;8.372;2024-02-21T05:39:52;5.90;99.90
14995;DHT22;7593;49.006;8.372;2024-02-21T05:42:18;5.90;99.90
14995;DHT22;7593;49.006;8.372;2024-02-21T05:44:45;5.90;99.90
14995;DHT22;7593;49.006;8.372;2024-02-21T05:47:12;5.90;99.90
14995;DHT22;7593;49.006;8.372;2024-02-21T05:49:40;5.90;99.90
14995;DHT22;7593;49.006;8.372;2024-02-21T05:52:08;5.80;99.90
14995;DHT22;7593;49.006;8.372;2024-02-21T05:54:37;5.80;99.90
14995;DHT22;7593;49.006;8.372;2024-02-21T05:57:04;5.80;99.90
14995;DHT22;7593;49.006;8.372;2024-02-21T05:59:32;5.80;99.90
14995;DHT22;7593;49.006;8.372;2024-02-21T06:02:00;5.80;99.90
14995;DHT22;7593;49.006;8.372;2024-02-21T06:04:29;5.70;99.90
14995;DHT22;7593;49.006;8.372;2024-02-21T06:06:56;5.70;99.90
14995;DHT22;7593;49.006;8.372;2024-02-21T06:09:24;5.70;99.90
14995;DHT22;7593;49.006;8.372;2024-02-21T06:11:50;5.70;99.90
14995;DHT22;7593;49.006;8.372;2024-02-21T06:14:17;5.70;99.90
14995;DHT22;7593;49.006;8.372;2024-02-21T06:16:44;5.70;99.90
14995;DHT22;7593;49.006;8.372;2024-02-21T06:19:10;5.70;99.90
14995;DHT22;7593;49.006;8.372;2024-02-21T06:21:37;5.70;99.90
14995;DHT22;7593;49.006;8.372;2024-02-21T06:24:04;5.70;99.90
14995;DHT22;7593;49.006;8.372;2024-02-21T06:26:33;5.70;99.90
14995;DHT22;7593;49.006;8.372;2024-02-21T06:28:59;5.70;99.90
14995;DHT22;7593;49.006;8.372;2024-02-21T06:31:27;5.60;99.90
14995;DHT22;7593;49.006;8.372;2024-02-21T06:33:54;5.60;99.90
14995;DHT22;7593;49.006;8.372;2024-02-21T06:36:21;5.60;99.90
14995;DHT22;7593;49.006;8.372;2024-02-21T06:38:48;5.60;99.90
14995;DHT22;7593;49.006;8.372;2024-02-21T06:41:15;5.70;99.90
14995;DHT22;7593;49.006;8.372;2024-02-21T06:43:45;5.60;99.90
14995;DHT22;7593;49.006;8.372;2024-02-21T06:46:12;5.60;99.90
14995;DHT22;7593;49.006;8.372;2024-02-21T06:48:39;5.60;99.90
14995;DHT22;7593;49.006;8.372;2024-02-21T06:51:05;5.60;99.90
14995;DHT22;7593;49.006;8.372;2024-02-21T06:53:32;5.60;99.90
14995;DHT22;7593;49.006;8.372;2024-02-21T06:55:59;5.60;99.90
14995;DHT22;7593;49.006;8.372;2024-02-21T06:58:25;5.60;99.90
14995;DHT22;7593;49.006;8.372;2024-02-21T07:00:53;5.60;99.90
14995;DHT22;7593;49.006;8.372;2024-02-21T07:03:20;5.60;99.90
14995;DHT22;7593;49.006;8.372;2024-02-21T07:05:49;5.60;99.90
14995;DHT22;7593;49.006;8.372;2024-02-21T07:08:16;5.70;99.90
14995;DHT22;7593;49.006;8.372;2024-02-21T07:10:42;5.70;99.90
14995;DHT22;7593;49.006;8.372;2024-02-21T07:13:09;5.70;99.90
14995;DHT22;7593;49.006;8.372;2024-02-21T07:15:36;5.80;99.90
14995;DHT22;7593;49.006;8.372;2024-02-21T07:18:05;5.80;99.90
14995;DHT22;7593;49.006;8.372;2024-02-21T07:20:31;5.80;99.90
14995;DHT22;7593;49.006;8.372;2024-02-21T07:22:59;5.80;99.90
14995;DHT22;7593;49.006;8.372;2024-02-21T07:25:25;5.80;99.90
14995;DHT22;7593;49.006;8.372;2024-02-21T07:27:52;5.80;99.90
14995;DHT22;7593;49.006;8.372;2024-02-21T07:30:20;5.90;99.90
14995;DHT22;7593;49.006;8.372;2024-02-21T07:32:49;5.90;99.90
14995;DHT22;7593;49.006;8.372;2024-02-21T07:35:17;6.00;99.90
14995;DHT22;7593;49.006;8.372;2024-02-21T07:37:44;6.00;99.90
14995;DHT22;7593;49.006;8.372;2024-02-21T07:40:12;6.10;99.90
14995;DHT22;7593;49.006;8.372;2024-02-21T07:42:40;6.10;99.90
14995;DHT22;7593;49.006;8.372;2024-02-21T07:45:07;6.20;99.90
14995;DHT22;7593;49.006;8.372;2024-02-21T07:47:34;6.30;99.90
14995;DHT22;7593;49.006;8.372;2024-02-21T07:50:01;6.30;99.90
14995;DHT22;7593;49.006;8.372;2024-02-21T07:52:30;6.40;99.90
14995;DHT22;7593;49.006;8.372;2024-02-21T07:54:56;6.50;99.90
14995;DHT22;7593;49.006;8.372;2024-02-21T07:57:24;6.50;99.90
14995;DHT22;7593;49.006;8.372;2024-02-21T07:59:51;6.60;99.90
14995;DHT22;7593;49.006;8.372;2024-02-21T08:02:18;6.70;99.90
14995;DHT22;7593;49.006;8.372;2024-02-21T08:04:44;6.80;99.90
14995;DHT22;7593;49.006;8.372;2024-02-21T08:07:11;6.90;99.90
14995;DHT22;7593;49.006;8.372;2024-02-21T08:09:40;7.10;99.90
14995;DHT22;7593;49.006;8.372;2024-02-21T08:12:07;7.10;99.90
14995;DHT22;7593;49.006;8.372;2024-02-21T08:14:34;7.10;99.90
14995;DHT22;7593;49.006;8.372;2024-02-21T08:17:01;7.10;99.90
14995;DHT22;7593;49.006;8.372;2024-02-21T08:19:29;7.20;99.90
14995;DHT22;7593;49.006;8.372;2024-02-21T08:21:56;7.20;99.90
14995;DHT22;7593;49.006;8.372;2024-02-21T08:24:23;7.20;99.90
14995;DHT22;7593;49.006;8.372;2024-02-21T08:26:51;7.20;99.90
14995;DHT22;7593;49.006;8.372;2024-02-21T08:29:17;7.20;99.90
14995;DHT22;7593;49.006;8.372;2024-02-21T08:31:44;7.30;99.90
14995;DHT22;7593;49.006;8.372;2024-02-21T08:34:11;7.30;99.90
14995;DHT22;7593;49.006;8.372;2024-02-21T08:36:38;7.30;99.90
14995;DHT22;7593;49.006;8.372;2024-02-21T08:39:05;7.30;99.90
14995;DHT22;7593;49.006;8.372;2024-02-21T08:41:33;7.40;99.90
14995;DHT22;7593;49.006;8.372;2024-02-21T08:44:02;7.40;99.90
14995;DHT22;7593;49.006;8.372;2024-02-21T08:46:28;7.40;99.90
14995;DHT22;7593;49.006;8.372;2024-02-21T08:48:55;7.50;99.90
14995;DHT22;7593;49.006;8.372;2024-02-21T08:51:22;7.60;99.90
14995;DHT22;7593;49.006;8.372;2024-02-21T08:53:49;7.60;99.90
14995;DHT22;7593;49.006;8.372;2024-02-21T08:56:17;7.70;99.90
14995;DHT22;7593;49.006;8.372;2024-02-21T08:58:44;7.80;99.90
14995;DHT22;7593;49.006;8.372;2024-02-21T09:01:12;8.00;99.90
14995;DHT22;7593;49.006;8.372;2024-02-21T09:03:39;8.10;99.90
14995;DHT22;7593;49.006;8.372;2024-02-21T09:06:06;8.30;99.90
14995;DHT22;7593;49.006;8.372;2024-02-21T09:08:33;8.40;99.90
14995;DHT22;7593;49.006;8.372;2024-02-21T09:11:00;8.70;99.90
14995;DHT22;7593;49.006;8.372;2024-02-21T09:13:27;8.80;99.90
14995;DHT22;7593;49.006;8.372;2024-02-21T09:15:54;9.00;99.90
14995;DHT22;7593;49.006;8.372;2024-02-21T09:18:22;9.10;99.90
14995;DHT22;7593;49.006;8.372;2024-02-21T09:20:50;9.30;99.90
14995;DHT22;7593;49.006;8.372;2024-02-21T09:23:17;9.50;99.90
14995;DHT22;7593;49.006;8.372;2024-02-21T09:25:45;9.70;99.90
14995;DHT22;7593;49.006;8.372;2024-02-21T09:28:12;9.80;99.90
14995;DHT22;7593;49.006;8.372;2024-02-21T09:30:39;10.00;99.90
14995;DHT22;7593;49.006;8.372;2024-02-21T09:33:06;10.20;99.90
14995;DHT22;7593;49.006;8.372;2024-02-21T09:35:34;10.40;99.90
14995;DHT22;7593;49.006;8.372;2024-02-21T09:38:01;10.70;99.90
14995;DHT22;7593;49.006;8.372;2024-02-21T09:40:28;10.90;99.90
14995;DHT22;7593;49.006;8.372;2024-02-21T09:43:01;10.90;99.90
14995;DHT22;7593;49.006;8.372;2024-02-21T09:45:30;10.90;99.90
14995;DHT22;7593;49.006;8.372;2024-02-21T09:51:05;10.80;99.90
14995;DHT22;7593;49.006;8.372;2024-02-21T09:53:34;10.80;99.90
14995;DHT22;7593;49.006;8.372;2024-02-21T09:56:02;10.70;99.90
14995;DHT22;7593;49.006;8.372;2024-02-21T09:58:29;10.70;99.90
14995;DHT22;7593;49.006;8.372;2024-02-21T10:00:56;10.70;99.90
14995;DHT22;7593;49.006;8.372;2024-02-21T10:03:25;10.70;99.90
14995;DHT22;7593;49.006;8.372;2024-02-21T10:05:52;10.60;99.90
14995;DHT22;7593;49.006;8.372;2024-02-21T10:08:21;10.50;99.90
14995;DHT22;7593;49.006;8.372;2024-02-21T10:10:47;10.40;99.90
14995;DHT22;7593;49.006;8.372;2024-02-21T10:13:25;10.40;99.90
14995;DHT22;7593;49.006;8.372;2024-02-21T10:16:04;10.30;99.90
14995;DHT22;7593;49.006;8.372;2024-02-21T10:18:31;10.20;99.90
14995;DHT22;7593;49.006;8.372;2024-02-21T10:21:02;10.20;99.90
14995;DHT22;7593;49.006;8.372;2024-02-21T10:23:41;10.20;99.90
14995;DHT22;7593;49.006;8.372;2024-02-21T10:26:07;10.10;99.90
14995;DHT22;7593;49.006;8.372;2024-02-21T10:28:34;10.10;99.90
14995;DHT22;7593;49.006;8.372;2024-02-21T10:31:01;10.10;99.90
14995;DHT22;7593;49.006;8.372;2024-02-21T10:33:28;10.20;99.90
14995;DHT22;7593;49.006;8.372;2024-02-21T10:36:06;10.30;99.90
14995;DHT22;7593;49.006;8.372;2024-02-21T10:38:36;10.40;99.90
14995;DHT22;7593;49.006;8.372;2024-02-21T10:41:04;10.50;99.90
14995;DHT22;7593;49.006;8.372;2024-02-21T10:43:37;10.50;99.90
14995;DHT22;7593;49.006;8.372;2024-02-21T10:46:05;10.60;99.90
14995;DHT22;7593;49.006;8.372;2024-02-21T10:48:41;10.60;99.90
14995;DHT22;7593;49.006;8.372;2024-02-21T10:51:15;10.60;99.90
14995;DHT22;7593;49.006;8.372;2024-02-21T10:53:50;10.70;99.90
14995;DHT22;7593;49.006;8.372;2024-02-21T10:56:24;10.80;99.90
14995;DHT22;7593;49.006;8.372;2024-02-21T10:58:53;10.90;99.90
14995;DHT22;7593;49.006;8.372;2024-02-21T11:01:21;10.90;99.90
14995;DHT22;7593;49.006;8.372;2024-02-21T11:03:52;10.90;99.90
14995;DHT22;7593;49.006;8.372;2024-02-21T11:06:20;10.90;99.90
14995;DHT22;7593;49.006;8.372;2024-02-21T11:09:00;10.90;99.90
14995;DHT22;7593;49.006;8.372;2024-02-21T11:11:27;10.90;99.90
14995;DHT22;7593;49.006;8.372;2024-02-21T11:14:04;11.00;99.90
14995;DHT22;7593;49.006;8.372;2024-02-21T11:16:35;11.00;99.90
14995;DHT22;7593;49.006;8.372;2024-02-21T11:19:06;11.00;99.90
14995;DHT22;7593;49.006;8.372;2024-02-21T11:21:34;11.10;99.90
14995;DHT22;7593;49.006;8.372;2024-02-21T11:24:02;11.20;99.90
14995;DHT22;7593;49.006;8.372;2024-02-21T11:26:30;11.20;99.90
14995;DHT22;7593;49.006;8.372;2024-02-21T11:28:58;11.30;99.90
14995;DHT22;7593;49.006;8.372;2024-02-21T11:31:25;11.30;99.90
14995;DHT22;7593;49.006;8.372;2024-02-21T11:33:53;11.30;99.90
14995;DHT22;7593;49.006;8.372;2024-02-21T11:36:25;11.20;99.90
14995;DHT22;7593;49.006;8.372;2024-02-21T11:38:52;11.20;99.90
14995;DHT22;7593;49.006;8.372;2024-02-21T11:41:20;11.20;99.90
14995;DHT22;7593;49.006;8.372;2024-02-21T11:43:48;11.20;99.90
14995;DHT22;7593;49.006;8.372;2024-02-21T11:46:15;11.20;99.90
14995;DHT22;7593;49.006;8.372;2024-02-21T11:48:42;11.20;99.90
14995;DHT22;7593;49.006;8.372;2024-02-21T11:51:10;11.20;99.90
14995;DHT22;7593;49.006;8.372;2024-02-21T11:53:37;11.20;99.90
14995;DHT22;7593;49.006;8.372;2024-02-21T11:56:04;11.20;99.90
14995;DHT22;7593;49.006;8.372;2024-02-21T11:58:33;11.20;99.90
14995;DHT22;7593;49.006;8.372;2024-02-21T12:01:00;11.20;99.90
14995;DHT22;7593;49.006;8.372;2024-02-21T12:03:28;11.20;99.90
14995;DHT22;7593;49.006;8.372;2024-02-21T12:05:55;11.20;99.90
14995;DHT22;7593;49.006;8.372;2024-02-21T12:08:24;11.20;99.90
14995;DHT22;7593;49.006;8.372;2024-02-21T12:10:51;11.20;99.90
14995;DHT22;7593;49.006;8.372;2024-02-21T12:13:17;11.30;99.90
14995;DHT22;7593;49.006;8.372;2024-02-21T12:15:50;11.30;99.90
14995;DHT22;7593;49.006;8.372;2024-02-21T12:18:17;11.30;99.90
14995;DHT22;7593;49.006;8.372;2024-02-21T12:20:43;11.40;99.90
14995;DHT22;7593;49.006;8.372;2024-02-21T12:23:11;11.40;99.90
14995;DHT22;7593;49.006;8.372;2024-02-21T12:25:39;11.50;99.90
14995;DHT22;7593;49.006;8.372;2024-02-21T12:28:05;11.50;99.90
14995;DHT22;7593;49.006;8.372;2024-02-21T12:30:32;11.50;99.90
14995;DHT22;7593;49.006;8.372;2024-02-21T12:33:02;11.50;99.90
14995;DHT22;7593;49.006;8.372;2024-02-21T12:35:29;11.60;99.90
14995;DHT22;7593;49.006;8.372;2024-02-21T12:37:58;11.60;99.90
14995;DHT22;7593;49.006;8.372;2024-02-21T12:40:25;11.50;99.90
14995;DHT22;7593;49.006;8.372;2024-02-21T12:42:58;11.50;99.90
14995;DHT22;7593;49.006;8.372;2024-02-21T12:45:24;11.50;99.90
14995;DHT22;7593;49.006;8.372;2024-02-21T12:47:52;11.50;99.90
14995;DHT22;7593;49.006;8.372;2024-02-21T12:50:20;11.50;99.90
14995;DHT22;7593;49.006;8.372;2024-02-21T12:52:48;11.40;99.90
14995;DHT22;7593;49.006;8.372;2024-02-21T12:55:15;11.40;99.90
14995;DHT22;7593;49.006;8.372;2024-02-21T12:57:42;11.40;99.90
14995;DHT22;7593;49.006;8.372;2024-02-21T13:00:10;11.40;99.90
14995;DHT22;7593;49.006;8.372;2024-02-21T13:02:36;11.40;99.90
14995;DHT22;7593;49.006;8.372;2024-02-21T13:05:04;11.40;99.90
14995;DHT22;7593;49.006;8.372;2024-02-21T13:07:32;11.40;99.90
14995;DHT22;7593;49.006;8.372;2024-02-21T13:09:59;11.40;99.90
14995;DHT22;7593;49.006;8.372;2024-02-21T13:12:26;11.40;99.90
14995;DHT22;7593;49.006;8.372;2024-02-21T13:14:53;11.40;99.90
14995;DHT22;7593;49.006;8.372;2024-02-21T13:17:19;11.40;99.90
14995;DHT22;7593;49.006;8.372;2024-02-21T13:19:47;11.40;99.90
14995;DHT22;7593;49.006;8.372;2024-02-21T13:22:14;11.40;99.90
14995;DHT22;7593;49.006;8.372;2024-02-21T13:24:42;11.40;99.90
14995;DHT22;7593;49.006;8.372;2024-02-21T13:27:09;11.50;99.90
14995;DHT22;7593;49.006;8.372;2024-02-21T13:29:36;11.50;99.90
14995;DHT22;7593;49.006;8.372;2024-02-21T13:32:03;11.50;99.90
14995;DHT22;7593;49.006;8.372;2024-02-21T13:34:31;11.50;99.90
14995;DHT22;7593;49.006;8.372;2024-02-21T13:36:58;11.50;99.90
14995;DHT22;7593;49.006;8.372;2024-02-21T13:39:25;11.50;99.90
14995;DHT22;7593;49.006;8.372;2024-02-21T13:41:53;11.50;99.90
14995;DHT22;7593;49.006;8.372;2024-02-21T13:44:20;11.50;99.90
14995;DHT22;7593;49.006;8.372;2024-02-21T13:46:47;11.50;99.90
14995;DHT22;7593;49.006;8.372;2024-02-21T13:49:13;11.50;99.90
14995;DHT22;7593;49.006;8.372;2024-02-21T13:51:41;11.50;99.90
14995;DHT22;7593;49.006;8.372;2024-02-21T13:54:10;11.40;99.90
14995;DHT22;7593;49.006;8.372;2024-02-21T13:56:37;11.40;99.90
14995;DHT22;7593;49.006;8.372;2024-02-21T13:59:05;11.30;99.90
14995;DHT22;7593;49.006;8.372;2024-02-21T14:01:32;11.40;99.90
14995;DHT22;7593;49.006;8.372;2024-02-21T14:03:58;11.40;99.90
14995;DHT22;7593;49.006;8.372;2024-02-21T14:06:25;11.50;99.90
14995;DHT22;7593;49.006;8.372;2024-02-21T14:08:52;11.50;99.90
14995;DHT22;7593;49.006;8.372;2024-02-21T14:11:19;11.50;99.90
14995;DHT22;7593;49.006;8.372;2024-02-21T14:13:46;11.50;99.90
14995;DHT22;7593;49.006;8.372;2024-02-21T14:16:14;11.50;99.90
14995;DHT22;7593;49.006;8.372;2024-02-21T14:18:41;11.50;99.90
14995;DHT22;7593;49.006;8.372;2024-02-21T14:21:08;11.50;99.90
14995;DHT22;7593;49.006;8.372;2024-02-21T14:23:36;11.50;99.90
14995;DHT22;7593;49.006;8.372;2024-02-21T14:26:03;11.40;99.90
14995;DHT22;7593;49.006;8.372;2024-02-21T14:28:30;11.50;99.90
14995;DHT22;7593;49.006;8.372;2024-02-21T14:30:59;11.50;99.90
14995;DHT22;7593;49.006;8.372;2024-02-21T14:33:27;11.60;99.90
14995;DHT22;7593;49.006;8.372;2024-02-21T14:35:54;11.60;99.90
14995;DHT22;7593;49.006;8.372;2024-02-21T14:38:21;11.70;99.90
14995;DHT22;7593;49.006;8.372;2024-02-21T14:40:48;11.60;99.90
14995;DHT22;7593;49.006;8.372;2024-02-21T14:43:15;11.60;99.90
14995;DHT22;7593;49.006;8.372;2024-02-21T14:45:43;11.50;99.90
14995;DHT22;7593;49.006;8.372;2024-02-21T14:48:13;11.50;99.90
14995;DHT22;7593;49.006;8.372;2024-02-21T14:50:41;11.50;99.90
14995;DHT22;7593;49.006;8.372;2024-02-21T14:53:08;11.60;99.90
14995;DHT22;7593;49.006;8.372;2024-02-21T14:55:35;11.60;99.90
14995;DHT22;7593;49.006;8.372;2024-02-21T14:58:01;11.60;99.90
14995;DHT22;7593;49.006;8.372;2024-02-21T15:00:29;11.60;99.90
14995;DHT22;7593;49.006;8.372;2024-02-21T15:02:56;11.50;99.90
14995;DHT22;7593;49.006;8.372;2024-02-21T15:05:23;11.50;99.90
14995;DHT22;7593;49.006;8.372;2024-02-21T15:07:51;11.50;99.90
14995;DHT22;7593;49.006;8.372;2024-02-21T15:10:18;11.40;99.90
14995;DHT22;7593;49.006;8.372;2024-02-21T15:12:45;11.40;99.90
14995;DHT22;7593;49.006;8.372;2024-02-21T15:15:13;11.40;99.90
14995;DHT22;7593;49.006;8.372;2024-02-21T15:17:40;11.40;99.90
14995;DHT22;7593;49.006;8.372;2024-02-21T15:20:08;11.40;99.90
14995;DHT22;7593;49.006;8.372;2024-02-21T15:22:36;11.50;99.90
14995;DHT22;7593;49.006;8.372;2024-02-21T15:25:05;11.50;99.90
14995;DHT22;7593;49.006;8.372;2024-02-21T15:27:32;11.50;99.90
14995;DHT22;7593;49.006;8.372;2024-02-21T15:30:01;11.50;99.90
14995;DHT22;7593;49.006;8.372;2024-02-21T15:32:29;11.50;99.90
14995;DHT22;7593;49.006;8.372;2024-02-21T15:34:55;11.50;99.90
14995;DHT22;7593;49.006;8.372;2024-02-21T15:37:22;11.40;99.90
14995;DHT22;7593;49.006;8.372;2024-02-21T15:39:50;11.40;99.90
14995;DHT22;7593;49.006;8.372;2024-02-21T15:42:19;11.40;99.90
14995;DHT22;7593;49.006;8.372;2024-02-21T15:44:46;11.40;99.90
14995;DHT22;7593;49.006;8.372;2024-02-21T15:47:12;11.40;99.90
14995;DHT22;7593;49.006;8.372;2024-02-21T15:49:41;11.40;99.90
14995;DHT22;7593;49.006;8.372;2024-02-21T15:52:08;11.40;99.90
14995;DHT22;7593;49.006;8.372;2024-02-21T15:54:36;11.40;99.90
14995;DHT22;7593;49.006;8.372;2024-02-21T15:57:03;11.40;99.90
14995;DHT22;7593;49.006;8.372;2024-02-21T15:59:34;11.40;99.90